sensor_id;sensor_type;location;lat;lon;timestamp;P1;P2;P0
73565;PMS5003;61846;52.970;-3.168;2023-07-31T00:00:49;0;0;
73565;PMS5003;61846;52.970;-3.168;2023-07-31T00:03:14;0;0;
73565;PMS5003;61846;52.970;-3.168;2023-07-31T00:05:40;0;0;
73565;PMS5003;61846;52.970;-3.168;2023-07-31T00:08:05;0;0;
73565;PMS5003;61846;52.970;-3.168;2023-07-31T00:10:30;0;0;
73565;PMS5003;61846;52.970;-3.168;2023-07-31T00:12:56;0;0;
73565;PMS5003;61846;52.970;-3.168;2023-07-31T00:15:21;0;0;
73565;PMS5003;61846;52.970;-3.168;2023-07-31T00:17:47;0;0;
73565;PMS5003;61846;52.970;-3.168;2023-07-31T00:20:12;0;0;
73565;PMS5003;61846;52.970;-3.168;2023-07-31T00:22:37;0;0;
73565;PMS5003;61846;52.970;-3.168;2023-07-31T00:25:03;0;0;
73565;PMS5003;61846;52.970;-3.168;2023-07-31T00:27:28;0;0;
73565;PMS5003;61846;52.970;-3.168;2023-07-31T00:29:53;0;0;
73565;PMS5003;61846;52.970;-3.168;2023-07-31T00:32:19;0;0;
73565;PMS5003;61846;52.970;-3.168;2023-07-31T00:34:44;0;0;
73565;PMS5003;61846;52.970;-3.168;2023-07-31T00:37:09;0;0;
73565;PMS5003;61846;52.970;-3.168;2023-07-31T00:39:35;0;0;
73565;PMS5003;61846;52.970;-3.168;2023-07-31T00:42:00;0;0;
73565;PMS5003;61846;52.970;-3.168;2023-07-31T00:44:25;0;0;
73565;PMS5003;61846;52.970;-3.168;2023-07-31T00:46:51;0;0;
73565;PMS5003;61846;52.970;-3.168;2023-07-31T00:49:16;0;0;
73565;PMS5003;61846;52.970;-3.168;2023-07-31T00:51:41;0;0;
73565;PMS5003;61846;52.970;-3.168;2023-07-31T00:54:07;0;0;
73565;PMS5003;61846;52.970;-3.168;2023-07-31T00:56:32;0;0;
73565;PMS5003;61846;52.970;-3.168;2023-07-31T00:58:58;0;0;
73565;PMS5003;61846;52.970;-3.168;2023-07-31T01:01:23;0;0;
73565;PMS5003;61846;52.970;-3.168;2023-07-31T01:03:48;0;0;
73565;PMS5003;61846;52.970;-3.168;2023-07-31T01:06:15;1;0;
73565;PMS5003;61846;52.970;-3.168;2023-07-31T01:08:41;0;0;
73565;PMS5003;61846;52.970;-3.168;2023-07-31T01:11:07;1;1;
73565;PMS5003;61846;52.970;-3.168;2023-07-31T01:13:30;0;0;
73565;PMS5003;61846;52.970;-3.168;2023-07-31T01:15:55;0;0;
73565;PMS5003;61846;52.970;-3.168;2023-07-31T01:18:20;0;0;
73565;PMS5003;61846;52.970;-3.168;2023-07-31T01:20:46;0;0;
73565;PMS5003;61846;52.970;-3.168;2023-07-31T01:25:46;2;0;
73565;PMS5003;61846;52.970;-3.168;2023-07-31T01:28:03;0;0;
73565;PMS5003;61846;52.970;-3.168;2023-07-31T01:30:27;0;0;
73565;PMS5003;61846;52.970;-3.168;2023-07-31T01:32:53;0;0;
73565;PMS5003;61846;52.970;-3.168;2023-07-31T01:35:18;0;0;
73565;PMS5003;61846;52.970;-3.168;2023-07-31T01:37:43;1;1;
73565;PMS5003;61846;52.970;-3.168;2023-07-31T01:40:09;0;0;
73565;PMS5003;61846;52.970;-3.168;2023-07-31T01:42:34;1;1;
73565;PMS5003;61846;52.970;-3.168;2023-07-31T01:44:59;0;0;
73565;PMS5003;61846;52.970;-3.168;2023-07-31T01:47:25;0;0;
73565;PMS5003;61846;52.970;-3.168;2023-07-31T01:49:50;0;0;
73565;PMS5003;61846;52.970;-3.168;2023-07-31T01:52:16;2;0;
73565;PMS5003;61846;52.970;-3.168;2023-07-31T01:54:41;0;0;
73565;PMS5003;61846;52.970;-3.168;2023-07-31T01:57:06;1;1;
73565;PMS5003;61846;52.970;-3.168;2023-07-31T01:59:32;0;0;
73565;PMS5003;61846;52.970;-3.168;2023-07-31T02:01:57;1;1;
73565;PMS5003;61846;52.970;-3.168;2023-07-31T02:04:22;0;0;
73565;PMS5003;61846;52.970;-3.168;2023-07-31T02:06:48;2;2;
73565;PMS5003;61846;52.970;-3.168;2023-07-31T02:09:13;1;1;
73565;PMS5003;61846;52.970;-3.168;2023-07-31T02:11:39;2;1;
73565;PMS5003;61846;52.970;-3.168;2023-07-31T02:14:04;1;1;
73565;PMS5003;61846;52.970;-3.168;2023-07-31T02:16:29;2;1;
73565;PMS5003;61846;52.970;-3.168;2023-07-31T02:18:55;1;0;
73565;PMS5003;61846;52.970;-3.168;2023-07-31T02:21:20;1;1;
73565;PMS5003;61846;52.970;-3.168;2023-07-31T02:23:45;0;0;
73565;PMS5003;61846;52.970;-3.168;2023-07-31T02:26:11;1;1;
73565;PMS5003;61846;52.970;-3.168;2023-07-31T02:28:36;1;1;
73565;PMS5003;61846;52.970;-3.168;2023-07-31T02:31:01;2;1;
73565;PMS5003;61846;52.970;-3.168;2023-07-31T02:33:27;1;1;
73565;PMS5003;61846;52.970;-3.168;2023-07-31T02:35:52;0;0;
73565;PMS5003;61846;52.970;-3.168;2023-07-31T02:38:17;0;0;
73565;PMS5003;61846;52.970;-3.168;2023-07-31T02:40:43;2;0;
73565;PMS5003;61846;52.970;-3.168;2023-07-31T02:43:08;1;0;
73565;PMS5003;61846;52.970;-3.168;2023-07-31T02:45:34;1;0;
73565;PMS5003;61846;52.970;-3.168;2023-07-31T02:47:59;1;0;
73565;PMS5003;61846;52.970;-3.168;2023-07-31T02:50:24;0;0;
73565;PMS5003;61846;52.970;-3.168;2023-07-31T02:52:50;2;0;
73565;PMS5003;61846;52.970;-3.168;2023-07-31T02:55:15;2;1;
73565;PMS5003;61846;52.970;-3.168;2023-07-31T02:57:40;1;1;
73565;PMS5003;61846;52.970;-3.168;2023-07-31T03:00:06;0;0;
73565;PMS5003;61846;52.970;-3.168;2023-07-31T03:02:31;0;0;
73565;PMS5003;61846;52.970;-3.168;2023-07-31T03:04:56;3;2;
73565;PMS5003;61846;52.970;-3.168;2023-07-31T03:07:22;1;1;
73565;PMS5003;61846;52.970;-3.168;2023-07-31T03:09:47;0;0;
73565;PMS5003;61846;52.970;-3.168;2023-07-31T03:12:13;3;3;
73565;PMS5003;61846;52.970;-3.168;2023-07-31T03:14:38;2;1;
73565;PMS5003;61846;52.970;-3.168;2023-07-31T03:17:03;3;3;
73565;PMS5003;61846;52.970;-3.168;2023-07-31T03:19:30;5;4;
73565;PMS5003;61846;52.970;-3.168;2023-07-31T03:21:54;4;4;
73565;PMS5003;61846;52.970;-3.168;2023-07-31T03:24:19;8;4;
73565;PMS5003;61846;52.970;-3.168;2023-07-31T03:26:44;3;2;
73565;PMS5003;61846;52.970;-3.168;2023-07-31T03:29:10;6;5;
73565;PMS5003;61846;52.970;-3.168;2023-07-31T03:31:35;4;4;
73565;PMS5003;61846;52.970;-3.168;2023-07-31T03:34:01;8;5;
73565;PMS5003;61846;52.970;-3.168;2023-07-31T03:36:26;3;3;
73565;PMS5003;61846;52.970;-3.168;2023-07-31T03:38:52;3;3;
73565;PMS5003;61846;52.970;-3.168;2023-07-31T03:41:17;3;3;
73565;PMS5003;61846;52.970;-3.168;2023-07-31T03:43:42;3;3;
73565;PMS5003;61846;52.970;-3.168;2023-07-31T03:46:08;3;3;
73565;PMS5003;61846;52.970;-3.168;2023-07-31T03:48:33;6;4;
73565;PMS5003;61846;52.970;-3.168;2023-07-31T03:50:58;5;5;
73565;PMS5003;61846;52.970;-3.168;2023-07-31T03:53:24;3;3;
73565;PMS5003;61846;52.970;-3.168;2023-07-31T03:55:49;5;5;
73565;PMS5003;61846;52.970;-3.168;2023-07-31T03:58:15;9;6;
73565;PMS5003;61846;52.970;-3.168;2023-07-31T04:00:40;8;6;
73565;PMS5003;61846;52.970;-3.168;2023-07-31T04:03:05;5;5;
73565;PMS5003;61846;52.970;-3.168;2023-07-31T04:05:31;4;4;
73565;PMS5003;61846;52.970;-3.168;2023-07-31T04:07:56;10;10;
73565;PMS5003;61846;52.970;-3.168;2023-07-31T04:10:21;8;6;
73565;PMS5003;61846;52.970;-3.168;2023-07-31T04:12:47;5;5;
73565;PMS5003;61846;52.970;-3.168;2023-07-31T04:15:12;16;7;
73565;PMS5003;61846;52.970;-3.168;2023-07-31T04:17:37;8;4;
73565;PMS5003;61846;52.970;-3.168;2023-07-31T04:20:03;2;2;
73565;PMS5003;61846;52.970;-3.168;2023-07-31T04:22:28;8;6;
73565;PMS5003;61846;52.970;-3.168;2023-07-31T04:24:54;3;3;
73565;PMS5003;61846;52.970;-3.168;2023-07-31T04:27:19;8;5;
73565;PMS5003;61846;52.970;-3.168;2023-07-31T04:29:44;5;5;
73565;PMS5003;61846;52.970;-3.168;2023-07-31T04:32:10;7;4;
73565;PMS5003;61846;52.970;-3.168;2023-07-31T04:34:35;7;4;
73565;PMS5003;61846;52.970;-3.168;2023-07-31T04:37:00;2;2;
73565;PMS5003;61846;52.970;-3.168;2023-07-31T04:39:26;6;5;
73565;PMS5003;61846;52.970;-3.168;2023-07-31T04:41:51;4;4;
73565;PMS5003;61846;52.970;-3.168;2023-07-31T04:44:16;7;6;
73565;PMS5003;61846;52.970;-3.168;2023-07-31T04:46:41;7;5;
73565;PMS5003;61846;52.970;-3.168;2023-07-31T04:49:07;10;5;
73565;PMS5003;61846;52.970;-3.168;2023-07-31T04:51:32;9;6;
73565;PMS5003;61846;52.970;-3.168;2023-07-31T04:53:57;4;4;
73565;PMS5003;61846;52.970;-3.168;2023-07-31T04:56:23;7;6;
73565;PMS5003;61846;52.970;-3.168;2023-07-31T04:58:48;5;3;
73565;PMS5003;61846;52.970;-3.168;2023-07-31T05:01:14;8;8;
73565;PMS5003;61846;52.970;-3.168;2023-07-31T05:03:39;6;6;
73565;PMS5003;61846;52.970;-3.168;2023-07-31T05:06:04;6;6;
73565;PMS5003;61846;52.970;-3.168;2023-07-31T05:08:30;7;5;
73565;PMS5003;61846;52.970;-3.168;2023-07-31T05:10:55;7;5;
73565;PMS5003;61846;52.970;-3.168;2023-07-31T05:13:20;6;6;
73565;PMS5003;61846;52.970;-3.168;2023-07-31T05:15:46;8;5;
73565;PMS5003;61846;52.970;-3.168;2023-07-31T05:18:11;8;5;
73565;PMS5003;61846;52.970;-3.168;2023-07-31T05:20:37;9;6;
73565;PMS5003;61846;52.970;-3.168;2023-07-31T05:23:02;5;5;
73565;PMS5003;61846;52.970;-3.168;2023-07-31T05:25:27;7;5;
73565;PMS5003;61846;52.970;-3.168;2023-07-31T05:27:53;6;5;
73565;PMS5003;61846;52.970;-3.168;2023-07-31T05:30:18;8;3;
73565;PMS5003;61846;52.970;-3.168;2023-07-31T05:32:44;6;5;
73565;PMS5003;61846;52.970;-3.168;2023-07-31T05:35:09;5;4;
73565;PMS5003;61846;52.970;-3.168;2023-07-31T05:37:34;9;6;
73565;PMS5003;61846;52.970;-3.168;2023-07-31T05:39:59;5;4;
73565;PMS5003;61846;52.970;-3.168;2023-07-31T05:42:24;8;6;
73565;PMS5003;61846;52.970;-3.168;2023-07-31T05:44:50;5;3;
73565;PMS5003;61846;52.970;-3.168;2023-07-31T05:47:15;5;4;
73565;PMS5003;61846;52.970;-3.168;2023-07-31T05:49:40;10;6;
73565;PMS5003;61846;52.970;-3.168;2023-07-31T05:52:06;9;4;
73565;PMS5003;61846;52.970;-3.168;2023-07-31T05:54:31;7;5;
73565;PMS5003;61846;52.970;-3.168;2023-07-31T05:56:56;6;5;
73565;PMS5003;61846;52.970;-3.168;2023-07-31T05:59:22;9;6;
73565;PMS5003;61846;52.970;-3.168;2023-07-31T06:01:48;5;5;
73565;PMS5003;61846;52.970;-3.168;2023-07-31T06:04:13;6;5;
73565;PMS5003;61846;52.970;-3.168;2023-07-31T06:06:38;5;5;
73565;PMS5003;61846;52.970;-3.168;2023-07-31T06:09:04;4;4;
73565;PMS5003;61846;52.970;-3.168;2023-07-31T06:11:30;11;7;
73565;PMS5003;61846;52.970;-3.168;2023-07-31T06:13:55;10;6;
73565;PMS5003;61846;52.970;-3.168;2023-07-31T06:16:21;5;5;
73565;PMS5003;61846;52.970;-3.168;2023-07-31T06:18:46;4;4;
73565;PMS5003;61846;52.970;-3.168;2023-07-31T06:21:11;8;3;
73565;PMS5003;61846;52.970;-3.168;2023-07-31T06:23:37;4;3;
73565;PMS5003;61846;52.970;-3.168;2023-07-31T06:26:02;5;3;
73565;PMS5003;61846;52.970;-3.168;2023-07-31T06:28:28;3;3;
73565;PMS5003;61846;52.970;-3.168;2023-07-31T06:30:53;9;3;
73565;PMS5003;61846;52.970;-3.168;2023-07-31T06:33:18;4;4;
73565;PMS5003;61846;52.970;-3.168;2023-07-31T06:35:44;3;2;
73565;PMS5003;61846;52.970;-3.168;2023-07-31T06:38:09;4;4;
73565;PMS5003;61846;52.970;-3.168;2023-07-31T06:40:35;4;2;
73565;PMS5003;61846;52.970;-3.168;2023-07-31T06:43:00;1;1;
73565;PMS5003;61846;52.970;-3.168;2023-07-31T06:45:25;2;2;
73565;PMS5003;61846;52.970;-3.168;2023-07-31T06:47:51;5;2;
73565;PMS5003;61846;52.970;-3.168;2023-07-31T06:50:16;1;1;
73565;PMS5003;61846;52.970;-3.168;2023-07-31T06:52:41;3;3;
73565;PMS5003;61846;52.970;-3.168;2023-07-31T06:57:32;2;2;
73565;PMS5003;61846;52.970;-3.168;2023-07-31T06:59:58;3;3;
73565;PMS5003;61846;52.970;-3.168;2023-07-31T07:02:23;4;2;
73565;PMS5003;61846;52.970;-3.168;2023-07-31T07:04:48;2;2;
73565;PMS5003;61846;52.970;-3.168;2023-07-31T07:07:14;2;2;
73565;PMS5003;61846;52.970;-3.168;2023-07-31T07:09:39;4;2;
73565;PMS5003;61846;52.970;-3.168;2023-07-31T07:12:04;5;4;
73565;PMS5003;61846;52.970;-3.168;2023-07-31T07:14:29;4;3;
73565;PMS5003;61846;52.970;-3.168;2023-07-31T07:16:55;3;3;
73565;PMS5003;61846;52.970;-3.168;2023-07-31T07:19:20;2;2;
73565;PMS5003;61846;52.970;-3.168;2023-07-31T07:21:47;2;2;
73565;PMS5003;61846;52.970;-3.168;2023-07-31T07:24:11;3;3;
73565;PMS5003;61846;52.970;-3.168;2023-07-31T07:26:36;3;3;
73565;PMS5003;61846;52.970;-3.168;2023-07-31T07:29:02;2;2;
73565;PMS5003;61846;52.970;-3.168;2023-07-31T07:31:27;1;1;
73565;PMS5003;61846;52.970;-3.168;2023-07-31T07:33:53;0;0;
73565;PMS5003;61846;52.970;-3.168;2023-07-31T07:36:18;6;3;
73565;PMS5003;61846;52.970;-3.168;2023-07-31T07:38:43;1;1;
73565;PMS5003;61846;52.970;-3.168;2023-07-31T07:41:09;2;1;
73565;PMS5003;61846;52.970;-3.168;2023-07-31T07:43:34;1;1;
73565;PMS5003;61846;52.970;-3.168;2023-07-31T07:45:59;4;2;
73565;PMS5003;61846;52.970;-3.168;2023-07-31T07:48:25;2;1;
73565;PMS5003;61846;52.970;-3.168;2023-07-31T07:50:50;2;2;
73565;PMS5003;61846;52.970;-3.168;2023-07-31T07:53:15;1;1;
73565;PMS5003;61846;52.970;-3.168;2023-07-31T07:55:41;5;3;
73565;PMS5003;61846;52.970;-3.168;2023-07-31T07:58:07;1;1;
73565;PMS5003;61846;52.970;-3.168;2023-07-31T08:00:32;3;2;
73565;PMS5003;61846;52.970;-3.168;2023-07-31T08:02:57;2;1;
73565;PMS5003;61846;52.970;-3.168;2023-07-31T08:05:22;4;3;
73565;PMS5003;61846;52.970;-3.168;2023-07-31T08:07:48;4;1;
73565;PMS5003;61846;52.970;-3.168;2023-07-31T08:10:13;5;4;
73565;PMS5003;61846;52.970;-3.168;2023-07-31T08:12:38;2;2;
73565;PMS5003;61846;52.970;-3.168;2023-07-31T08:15:05;2;2;
73565;PMS5003;61846;52.970;-3.168;2023-07-31T08:17:29;4;2;
73565;PMS5003;61846;52.970;-3.168;2023-07-31T08:19:55;2;2;
73565;PMS5003;61846;52.970;-3.168;2023-07-31T08:22:21;2;2;
73565;PMS5003;61846;52.970;-3.168;2023-07-31T08:24:45;1;1;
73565;PMS5003;61846;52.970;-3.168;2023-07-31T08:27:10;2;2;
73565;PMS5003;61846;52.970;-3.168;2023-07-31T08:29:36;1;1;
73565;PMS5003;61846;52.970;-3.168;2023-07-31T08:32:01;2;2;
73565;PMS5003;61846;52.970;-3.168;2023-07-31T08:34:27;5;2;
73565;PMS5003;61846;52.970;-3.168;2023-07-31T08:36:52;2;2;
73565;PMS5003;61846;52.970;-3.168;2023-07-31T08:39:17;3;3;
73565;PMS5003;61846;52.970;-3.168;2023-07-31T08:41:43;3;3;
73565;PMS5003;61846;52.970;-3.168;2023-07-31T08:44:08;3;3;
73565;PMS5003;61846;52.970;-3.168;2023-07-31T08:46:33;2;2;
73565;PMS5003;61846;52.970;-3.168;2023-07-31T08:48:59;2;1;
73565;PMS5003;61846;52.970;-3.168;2023-07-31T08:51:24;6;4;
73565;PMS5003;61846;52.970;-3.168;2023-07-31T08:53:50;1;1;
73565;PMS5003;61846;52.970;-3.168;2023-07-31T08:56:15;4;4;
73565;PMS5003;61846;52.970;-3.168;2023-07-31T08:58:40;3;3;
73565;PMS5003;61846;52.970;-3.168;2023-07-31T09:01:06;3;3;
73565;PMS5003;61846;52.970;-3.168;2023-07-31T09:03:33;5;2;
73565;PMS5003;61846;52.970;-3.168;2023-07-31T09:05:57;4;2;
73565;PMS5003;61846;52.970;-3.168;2023-07-31T09:08:22;8;5;
73565;PMS5003;61846;52.970;-3.168;2023-07-31T09:10:47;5;3;
73565;PMS5003;61846;52.970;-3.168;2023-07-31T09:13:12;6;4;
73565;PMS5003;61846;52.970;-3.168;2023-07-31T09:15:37;4;2;
73565;PMS5003;61846;52.970;-3.168;2023-07-31T09:18:03;11;5;
73565;PMS5003;61846;52.970;-3.168;2023-07-31T09:20:28;6;4;
73565;PMS5003;61846;52.970;-3.168;2023-07-31T09:22:54;6;5;
73565;PMS5003;61846;52.970;-3.168;2023-07-31T09:25:20;4;4;
73565;PMS5003;61846;52.970;-3.168;2023-07-31T09:27:46;12;4;
73565;PMS5003;61846;52.970;-3.168;2023-07-31T09:30:10;3;3;
73565;PMS5003;61846;52.970;-3.168;2023-07-31T09:32:35;7;6;
73565;PMS5003;61846;52.970;-3.168;2023-07-31T09:35:00;4;3;
73565;PMS5003;61846;52.970;-3.168;2023-07-31T09:37:29;10;4;
73565;PMS5003;61846;52.970;-3.168;2023-07-31T09:39:52;6;2;
73565;PMS5003;61846;52.970;-3.168;2023-07-31T09:44:42;9;5;
73565;PMS5003;61846;52.970;-3.168;2023-07-31T09:49:33;7;3;
73565;PMS5003;61846;52.970;-3.168;2023-07-31T09:51:59;4;4;
73565;PMS5003;61846;52.970;-3.168;2023-07-31T09:54:24;6;6;
73565;PMS5003;61846;52.970;-3.168;2023-07-31T09:56:49;6;5;
73565;PMS5003;61846;52.970;-3.168;2023-07-31T09:59:15;9;5;
73565;PMS5003;61846;52.970;-3.168;2023-07-31T10:01:41;8;5;
73565;PMS5003;61846;52.970;-3.168;2023-07-31T10:04:06;4;3;
73565;PMS5003;61846;52.970;-3.168;2023-07-31T10:06:32;5;3;
73565;PMS5003;61846;52.970;-3.168;2023-07-31T10:08:57;6;4;
73565;PMS5003;61846;52.970;-3.168;2023-07-31T10:11:22;6;5;
73565;PMS5003;61846;52.970;-3.168;2023-07-31T10:13:47;9;7;
73565;PMS5003;61846;52.970;-3.168;2023-07-31T10:16:13;6;4;
73565;PMS5003;61846;52.970;-3.168;2023-07-31T10:18:38;8;6;
73565;PMS5003;61846;52.970;-3.168;2023-07-31T10:21:03;4;2;
73565;PMS5003;61846;52.970;-3.168;2023-07-31T10:23:29;7;6;
73565;PMS5003;61846;52.970;-3.168;2023-07-31T10:25:55;5;3;
73565;PMS5003;61846;52.970;-3.168;2023-07-31T10:28:20;7;5;
73565;PMS5003;61846;52.970;-3.168;2023-07-31T10:30:45;5;2;
73565;PMS5003;61846;52.970;-3.168;2023-07-31T10:33:10;7;5;
73565;PMS5003;61846;52.970;-3.168;2023-07-31T10:35:35;5;3;
73565;PMS5003;61846;52.970;-3.168;2023-07-31T10:40:26;4;3;
73565;PMS5003;61846;52.970;-3.168;2023-07-31T10:42:52;7;5;
73565;PMS5003;61846;52.970;-3.168;2023-07-31T10:47:42;3;3;
73565;PMS5003;61846;52.970;-3.168;2023-07-31T10:50:12;7;4;
73565;PMS5003;61846;52.970;-3.168;2023-07-31T10:52:33;5;5;
73565;PMS5003;61846;52.970;-3.168;2023-07-31T10:57:24;6;2;
73565;PMS5003;61846;52.970;-3.168;2023-07-31T10:59:49;4;3;
73565;PMS5003;61846;52.970;-3.168;2023-07-31T11:04:40;7;6;
73565;PMS5003;61846;52.970;-3.168;2023-07-31T11:07:05;5;5;
73565;PMS5003;61846;52.970;-3.168;2023-07-31T11:09:31;4;3;
73565;PMS5003;61846;52.970;-3.168;2023-07-31T11:11:56;5;4;
73565;PMS5003;61846;52.970;-3.168;2023-07-31T11:14:22;4;3;
73565;PMS5003;61846;52.970;-3.168;2023-07-31T11:16:49;4;3;
73565;PMS5003;61846;52.970;-3.168;2023-07-31T11:19:12;3;2;
73565;PMS5003;61846;52.970;-3.168;2023-07-31T11:21:38;4;4;
73565;PMS5003;61846;52.970;-3.168;2023-07-31T11:24:03;5;4;
73565;PMS5003;61846;52.970;-3.168;2023-07-31T11:26:28;3;1;
73565;PMS5003;61846;52.970;-3.168;2023-07-31T11:28:54;2;2;
73565;PMS5003;61846;52.970;-3.168;2023-07-31T11:31:19;3;3;
73565;PMS5003;61846;52.970;-3.168;2023-07-31T11:33:44;3;3;
73565;PMS5003;61846;52.970;-3.168;2023-07-31T11:36:14;2;2;
73565;PMS5003;61846;52.970;-3.168;2023-07-31T11:38:35;2;2;
73565;PMS5003;61846;52.970;-3.168;2023-07-31T11:41:01;1;1;
73565;PMS5003;61846;52.970;-3.168;2023-07-31T11:43:26;4;2;
73565;PMS5003;61846;52.970;-3.168;2023-07-31T11:45:52;4;2;
73565;PMS5003;61846;52.970;-3.168;2023-07-31T11:48:18;2;1;
73565;PMS5003;61846;52.970;-3.168;2023-07-31T11:50:42;6;2;
73565;PMS5003;61846;52.970;-3.168;2023-07-31T11:53:07;4;3;
73565;PMS5003;61846;52.970;-3.168;2023-07-31T11:55:33;5;5;
73565;PMS5003;61846;52.970;-3.168;2023-07-31T11:57:58;2;2;
73565;PMS5003;61846;52.970;-3.168;2023-07-31T12:00:24;3;3;
73565;PMS5003;61846;52.970;-3.168;2023-07-31T12:02:49;3;2;
73565;PMS5003;61846;52.970;-3.168;2023-07-31T12:05:14;3;2;
73565;PMS5003;61846;52.970;-3.168;2023-07-31T12:07:44;2;2;
73565;PMS5003;61846;52.970;-3.168;2023-07-31T12:10:05;1;1;
73565;PMS5003;61846;52.970;-3.168;2023-07-31T12:12:30;2;2;
73565;PMS5003;61846;52.970;-3.168;2023-07-31T12:14:56;2;2;
73565;PMS5003;61846;52.970;-3.168;2023-07-31T12:17:21;3;2;
73565;PMS5003;61846;52.970;-3.168;2023-07-31T12:19:48;2;1;
73565;PMS5003;61846;52.970;-3.168;2023-07-31T12:22:12;3;3;
73565;PMS5003;61846;52.970;-3.168;2023-07-31T12:24:37;3;3;
73565;PMS5003;61846;52.970;-3.168;2023-07-31T12:31:53;2;2;
73565;PMS5003;61846;52.970;-3.168;2023-07-31T12:34:19;3;3;
73565;PMS5003;61846;52.970;-3.168;2023-07-31T12:36:44;2;2;
73565;PMS5003;61846;52.970;-3.168;2023-07-31T12:39:09;1;1;
73565;PMS5003;61846;52.970;-3.168;2023-07-31T12:41:34;3;3;
73565;PMS5003;61846;52.970;-3.168;2023-07-31T12:44:00;3;3;
73565;PMS5003;61846;52.970;-3.168;2023-07-31T12:46:25;0;0;
73565;PMS5003;61846;52.970;-3.168;2023-07-31T12:48:51;2;2;
73565;PMS5003;61846;52.970;-3.168;2023-07-31T12:51:16;1;1;
73565;PMS5003;61846;52.970;-3.168;2023-07-31T12:53:41;2;2;
73565;PMS5003;61846;52.970;-3.168;2023-07-31T12:56:07;2;2;
73565;PMS5003;61846;52.970;-3.168;2023-07-31T12:58:32;2;1;
73565;PMS5003;61846;52.970;-3.168;2023-07-31T13:00:58;2;2;
73565;PMS5003;61846;52.970;-3.168;2023-07-31T13:03:23;9;4;
73565;PMS5003;61846;52.970;-3.168;2023-07-31T13:05:49;0;0;
73565;PMS5003;61846;52.970;-3.168;2023-07-31T13:08:14;2;2;
73565;PMS5003;61846;52.970;-3.168;2023-07-31T13:10:40;5;2;
73565;PMS5003;61846;52.970;-3.168;2023-07-31T13:13:05;3;3;
73565;PMS5003;61846;52.970;-3.168;2023-07-31T13:15:30;3;2;
73565;PMS5003;61846;52.970;-3.168;2023-07-31T13:17:56;3;2;
73565;PMS5003;61846;52.970;-3.168;2023-07-31T13:20:22;2;2;
73565;PMS5003;61846;52.970;-3.168;2023-07-31T13:22:47;4;3;
73565;PMS5003;61846;52.970;-3.168;2023-07-31T13:25:12;2;2;
73565;PMS5003;61846;52.970;-3.168;2023-07-31T13:27:42;1;1;
73565;PMS5003;61846;52.970;-3.168;2023-07-31T13:30:03;3;2;
73565;PMS5003;61846;52.970;-3.168;2023-07-31T13:32:29;1;1;
73565;PMS5003;61846;52.970;-3.168;2023-07-31T13:34:54;4;3;
73565;PMS5003;61846;52.970;-3.168;2023-07-31T13:37:19;4;4;
73565;PMS5003;61846;52.970;-3.168;2023-07-31T13:39:44;5;4;
73565;PMS5003;61846;52.970;-3.168;2023-07-31T13:42:10;3;3;
73565;PMS5003;61846;52.970;-3.168;2023-07-31T13:44:35;8;3;
73565;PMS5003;61846;52.970;-3.168;2023-07-31T13:47:00;3;3;
73565;PMS5003;61846;52.970;-3.168;2023-07-31T13:49:26;5;4;
73565;PMS5003;61846;52.970;-3.168;2023-07-31T13:51:51;4;3;
73565;PMS5003;61846;52.970;-3.168;2023-07-31T13:54:16;7;4;
73565;PMS5003;61846;52.970;-3.168;2023-07-31T13:56:42;8;2;
73565;PMS5003;61846;52.970;-3.168;2023-07-31T13:59:07;9;5;
73565;PMS5003;61846;52.970;-3.168;2023-07-31T14:01:33;4;4;
73565;PMS5003;61846;52.970;-3.168;2023-07-31T14:03:58;7;5;
73565;PMS5003;61846;52.970;-3.168;2023-07-31T14:06:23;4;4;
73565;PMS5003;61846;52.970;-3.168;2023-07-31T14:08:49;5;4;
73565;PMS5003;61846;52.970;-3.168;2023-07-31T14:11:14;6;5;
73565;PMS5003;61846;52.970;-3.168;2023-07-31T14:13:40;7;5;
73565;PMS5003;61846;52.970;-3.168;2023-07-31T14:16:05;4;4;
73565;PMS5003;61846;52.970;-3.168;2023-07-31T14:18:30;4;4;
73565;PMS5003;61846;52.970;-3.168;2023-07-31T14:20:56;3;3;
73565;PMS5003;61846;52.970;-3.168;2023-07-31T14:23:21;4;3;
73565;PMS5003;61846;52.970;-3.168;2023-07-31T14:25:46;5;2;
73565;PMS5003;61846;52.970;-3.168;2023-07-31T14:28:12;4;2;
73565;PMS5003;61846;52.970;-3.168;2023-07-31T14:30:37;3;2;
73565;PMS5003;61846;52.970;-3.168;2023-07-31T14:33:03;4;2;
73565;PMS5003;61846;52.970;-3.168;2023-07-31T14:35:28;7;4;
73565;PMS5003;61846;52.970;-3.168;2023-07-31T14:37:54;8;3;
73565;PMS5003;61846;52.970;-3.168;2023-07-31T14:40:19;3;3;
73565;PMS5003;61846;52.970;-3.168;2023-07-31T14:42:44;7;2;
73565;PMS5003;61846;52.970;-3.168;2023-07-31T14:45:10;4;4;
73565;PMS5003;61846;52.970;-3.168;2023-07-31T14:47:35;5;3;
73565;PMS5003;61846;52.970;-3.168;2023-07-31T14:50:00;3;1;
73565;PMS5003;61846;52.970;-3.168;2023-07-31T14:52:26;4;4;
73565;PMS5003;61846;52.970;-3.168;2023-07-31T14:54:51;5;1;
73565;PMS5003;61846;52.970;-3.168;2023-07-31T14:57:16;4;3;
73565;PMS5003;61846;52.970;-3.168;2023-07-31T14:59:42;4;4;
73565;PMS5003;61846;52.970;-3.168;2023-07-31T15:02:08;2;0;
73565;PMS5003;61846;52.970;-3.168;2023-07-31T15:04:32;5;5;
73565;PMS5003;61846;52.970;-3.168;2023-07-31T15:06:58;2;2;
73565;PMS5003;61846;52.970;-3.168;2023-07-31T15:09:23;3;3;
73565;PMS5003;61846;52.970;-3.168;2023-07-31T15:11:48;5;3;
73565;PMS5003;61846;52.970;-3.168;2023-07-31T15:14:14;5;5;
73565;PMS5003;61846;52.970;-3.168;2023-07-31T15:16:39;4;2;
73565;PMS5003;61846;52.970;-3.168;2023-07-31T15:19:04;5;4;
73565;PMS5003;61846;52.970;-3.168;2023-07-31T15:21:30;4;3;
73565;PMS5003;61846;52.970;-3.168;2023-07-31T15:23:55;4;3;
73565;PMS5003;61846;52.970;-3.168;2023-07-31T15:26:21;3;3;
73565;PMS5003;61846;52.970;-3.168;2023-07-31T15:28:48;5;2;
73565;PMS5003;61846;52.970;-3.168;2023-07-31T15:31:11;2;2;
73565;PMS5003;61846;52.970;-3.168;2023-07-31T15:33:37;4;1;
73565;PMS5003;61846;52.970;-3.168;2023-07-31T15:36:02;2;2;
73565;PMS5003;61846;52.970;-3.168;2023-07-31T15:38:27;1;1;
73565;PMS5003;61846;52.970;-3.168;2023-07-31T15:40:53;3;3;
73565;PMS5003;61846;52.970;-3.168;2023-07-31T15:43:18;4;4;
73565;PMS5003;61846;52.970;-3.168;2023-07-31T15:45:44;3;1;
73565;PMS5003;61846;52.970;-3.168;2023-07-31T15:48:09;3;3;
73565;PMS5003;61846;52.970;-3.168;2023-07-31T15:50:34;3;2;
73565;PMS5003;61846;52.970;-3.168;2023-07-31T15:53:00;5;3;
73565;PMS5003;61846;52.970;-3.168;2023-07-31T15:55:25;2;2;
73565;PMS5003;61846;52.970;-3.168;2023-07-31T15:57:50;7;5;
73565;PMS5003;61846;52.970;-3.168;2023-07-31T16:00:16;4;2;
73565;PMS5003;61846;52.970;-3.168;2023-07-31T16:02:41;3;3;
73565;PMS5003;61846;52.970;-3.168;2023-07-31T16:05:06;13;3;
73565;PMS5003;61846;52.970;-3.168;2023-07-31T16:07:31;3;3;
73565;PMS5003;61846;52.970;-3.168;2023-07-31T16:09:57;3;3;
73565;PMS5003;61846;52.970;-3.168;2023-07-31T16:12:22;2;2;
73565;PMS5003;61846;52.970;-3.168;2023-07-31T16:14:47;3;2;
73565;PMS5003;61846;52.970;-3.168;2023-07-31T16:17:13;6;5;
73565;PMS5003;61846;52.970;-3.168;2023-07-31T16:19:38;4;4;
73565;PMS5003;61846;52.970;-3.168;2023-07-31T16:22:04;6;5;
73565;PMS5003;61846;52.970;-3.168;2023-07-31T16:24:28;3;2;
73565;PMS5003;61846;52.970;-3.168;2023-07-31T16:26:54;8;5;
73565;PMS5003;61846;52.970;-3.168;2023-07-31T16:29:19;6;3;
73565;PMS5003;61846;52.970;-3.168;2023-07-31T16:31:44;3;3;
73565;PMS5003;61846;52.970;-3.168;2023-07-31T16:34:10;6;4;
73565;PMS5003;61846;52.970;-3.168;2023-07-31T16:36:35;6;3;
73565;PMS5003;61846;52.970;-3.168;2023-07-31T16:39:00;4;3;
73565;PMS5003;61846;52.970;-3.168;2023-07-31T16:41:25;4;4;
73565;PMS5003;61846;52.970;-3.168;2023-07-31T16:43:51;6;2;